createdAt,value
2023-03-11T00:01:29.438Z,7.05
2023-03-11T00:06:36.128Z,46.50
2023-03-11T00:11:39.236Z,5.20
2023-03-11T00:16:42.405Z,4.70
2023-03-11T00:21:46.988Z,4.95
2023-03-11T00:26:50.163Z,6.50
2023-03-11T00:31:53.380Z,7.90
2023-03-11T00:36:57.944Z,7.72
2023-03-11T00:42:01.320Z,7.35
2023-03-11T00:47:04.540Z,9.13
2023-03-11T00:52:09.164Z,2.90
2023-03-11T00:57:12.328Z,8.23
2023-03-11T01:02:15.477Z,5.07
2023-03-11T01:07:20.028Z,1.92
2023-03-11T01:12:23.189Z,1.67
2023-03-11T01:17:26.351Z,1.40
2023-03-11T01:22:30.960Z,1.83
2023-03-11T01:27:34.103Z,1.15
2023-03-11T01:32:37.346Z,1.00
2023-03-11T01:37:42.165Z,1.20
2023-03-11T01:47:48.185Z,1.73
2023-03-11T01:52:52.796Z,1.30
2023-03-11T01:57:56.633Z,1.23
2023-03-11T02:03:03.348Z,2.78
2023-03-11T02:08:09.147Z,2.35
2023-03-11T02:13:13.016Z,2.20
2023-03-11T02:18:18.695Z,1.70
2023-03-11T02:23:28.929Z,1.67
2023-03-11T02:28:36.130Z,2.10
2023-03-11T02:33:39.639Z,2.03
2023-03-11T02:38:42.776Z,1.80
2023-03-11T02:43:48.206Z,1.90
2023-03-11T02:48:52.541Z,1.70
2023-03-11T02:54:01.078Z,2.10
2023-03-11T02:59:05.664Z,2.33
2023-03-11T03:04:08.913Z,2.38
2023-03-11T03:09:12.236Z,2.30
2023-03-11T03:14:16.834Z,2.28
2023-03-11T03:19:20.081Z,2.75
2023-03-11T03:24:23.220Z,2.55
2023-03-11T03:29:27.854Z,2.85
2023-03-11T03:34:30.996Z,2.92
2023-03-11T03:39:34.312Z,2.72
2023-03-11T03:44:38.857Z,2.67
2023-03-11T03:49:42.049Z,2.80
2023-03-11T03:54:45.289Z,2.65
2023-03-11T03:59:49.833Z,2.83
2023-03-11T04:04:53.079Z,3.08
2023-03-11T04:09:56.191Z,2.90
2023-03-11T04:15:00.796Z,3.28
2023-03-11T04:20:04.479Z,2.80
2023-03-11T04:25:08.766Z,2.95
2023-03-11T04:30:14.574Z,2.95
2023-03-11T04:35:17.806Z,2.95
2023-03-11T04:40:21.280Z,3.47
2023-03-11T04:45:25.813Z,3.28
2023-03-11T04:50:28.987Z,2.85
2023-03-11T04:55:33.541Z,2.97
2023-03-11T05:00:38.255Z,3.20
2023-03-11T05:05:41.481Z,3.20
2023-03-11T05:10:44.700Z,3.78
2023-03-11T05:15:49.911Z,3.50
2023-03-11T05:20:53.644Z,3.17
2023-03-11T05:25:56.922Z,3.30
2023-03-11T05:31:01.707Z,3.22
2023-03-11T05:41:09.188Z,3.03
2023-03-11T05:46:14.263Z,3.10
2023-03-11T05:51:17.526Z,3.22
2023-03-11T05:56:22.468Z,3.80
2023-03-11T06:01:27.320Z,3.40
2023-03-11T06:11:33.976Z,3.00
2023-03-11T06:16:38.719Z,3.25
2023-03-11T06:26:45.317Z,3.47
2023-03-11T06:31:50.000Z,3.30
2023-03-11T06:36:54.946Z,2.95
2023-03-11T06:47:03.840Z,3.80
2023-03-11T06:52:07.783Z,3.13
2023-03-11T06:57:12.017Z,3.20
2023-03-11T07:02:18.141Z,3.13
2023-03-11T07:07:21.645Z,3.42
2023-03-11T07:12:25.663Z,3.33
2023-03-11T07:17:30.312Z,3.23
2023-03-11T07:22:33.561Z,2.90
2023-03-11T07:27:36.870Z,3.22
2023-03-11T07:32:42.742Z,3.35
2023-03-11T07:37:46.004Z,3.00
2023-03-11T07:42:49.264Z,3.40
2023-03-11T07:47:54.103Z,3.53
2023-03-11T07:58:00.319Z,3.05
2023-03-11T08:03:04.996Z,3.00
2023-03-11T08:08:08.312Z,3.42
2023-03-11T08:13:11.536Z,3.17
2023-03-11T08:18:17.068Z,3.25
2023-03-11T08:23:20.420Z,3.22
2023-03-11T08:28:23.711Z,3.28
2023-03-11T08:33:28.700Z,3.53
2023-03-11T08:38:32.163Z,3.88
2023-03-11T08:43:36.081Z,3.50
2023-03-11T08:48:40.853Z,3.80
2023-03-11T08:53:44.184Z,3.70
2023-03-11T08:58:47.872Z,3.47
2023-03-11T09:03:52.771Z,3.60
2023-03-11T09:08:56.069Z,3.50
2023-03-11T09:13:59.334Z,3.40
2023-03-11T09:19:07.503Z,4.03
2023-03-11T09:24:10.849Z,4.15
2023-03-11T09:29:14.113Z,4.70
2023-03-11T09:34:18.819Z,5.07
2023-03-11T09:44:32.845Z,4.43
2023-03-11T09:49:50.188Z,5.53
2023-03-11T09:54:57.100Z,4.97
2023-03-11T10:00:03.646Z,4.60
2023-03-11T10:05:15.309Z,4.72
2023-03-11T10:10:19.666Z,4.40
2023-03-11T10:15:31.340Z,3.90
2023-03-11T10:20:47.062Z,4.50
2023-03-11T10:26:00.177Z,4.18
2023-03-11T10:31:09.039Z,4.25
2023-03-11T10:36:17.453Z,3.88
2023-03-11T10:41:25.253Z,4.10
2023-03-11T10:46:30.524Z,4.20
2023-03-11T10:51:36.600Z,4.03
2023-03-11T10:56:41.825Z,3.72
2023-03-11T11:01:56.496Z,3.63
2023-03-11T11:12:23.927Z,3.25
2023-03-11T11:17:31.476Z,3.33
2023-03-11T11:22:36.731Z,3.30
2023-03-11T11:27:39.905Z,3.05
2023-03-11T11:32:43.269Z,3.05
2023-03-11T11:37:49.917Z,3.13
2023-03-11T11:42:56.921Z,3.15
2023-03-11T11:48:04.498Z,3.28
2023-03-11T11:53:20.645Z,3.15
2023-03-11T11:58:24.135Z,2.70
2023-03-11T12:03:53.856Z,3.08
2023-03-11T12:09:08.625Z,2.75
2023-03-11T12:19:26.991Z,3.40
2023-03-11T12:24:51.523Z,3.45
2023-03-11T12:29:57.726Z,3.63
2023-03-11T12:35:05.663Z,4.88
2023-03-11T12:40:57.546Z,4.82
2023-03-11T12:46:02.576Z,4.75
2023-03-11T12:51:06.461Z,4.25
2023-03-11T12:56:18.433Z,4.00
2023-03-11T13:01:41.970Z,3.97
2023-03-11T13:07:08.352Z,3.92
2023-03-11T13:12:44.076Z,4.28
2023-03-11T13:18:00.365Z,3.70
2023-03-11T13:23:22.530Z,3.90
2023-03-11T13:28:51.161Z,3.90
2023-03-11T13:33:57.748Z,3.13
2023-03-11T13:39:31.805Z,2.90
2023-03-11T13:44:38.048Z,2.83
2023-03-11T13:49:46.536Z,2.83
2023-03-11T13:54:55.332Z,3.00
2023-03-11T13:59:59.426Z,4.15
2023-03-11T14:05:08.179Z,4.70
2023-03-11T14:10:23.153Z,5.38
2023-03-11T14:15:28.081Z,4.63
2023-03-11T14:20:32.777Z,4.88
2023-03-11T14:30:40.120Z,3.63
2023-03-11T15:12:50.012Z,4.80
2023-03-11T15:17:57.834Z,6.68
2023-03-11T15:23:03.141Z,7.60
2023-03-11T15:28:32.518Z,10.73
2023-03-11T15:33:35.675Z,11.52
2023-03-11T15:38:38.891Z,11.38
2023-03-11T15:43:48.458Z,10.30
2023-03-11T15:48:51.625Z,8.55
2023-03-11T15:53:54.773Z,8.18
2023-03-11T15:58:59.541Z,7.38
2023-03-11T16:04:02.912Z,5.57
2023-03-11T16:09:06.394Z,5.35
2023-03-11T16:14:17.023Z,4.70
2023-03-11T16:19:20.236Z,4.75
2023-03-11T16:24:26.564Z,4.80
2023-03-11T16:29:31.223Z,5.20
2023-03-11T16:39:38.923Z,5.57
2023-03-11T16:49:46.549Z,6.38
2023-03-11T16:54:50.401Z,6.53
2023-03-11T16:59:55.106Z,6.77
2023-03-11T17:10:01.814Z,6.35
2023-03-11T17:15:08.640Z,6.85
2023-03-11T17:20:13.339Z,7.32
2023-03-11T17:30:37.180Z,11.63
2023-03-11T17:35:41.118Z,8.50
2023-03-11T17:40:44.326Z,7.80
2023-03-11T17:45:48.951Z,7.32
2023-03-11T17:55:55.160Z,7.93
2023-03-11T18:01:00.541Z,7.85
2023-03-11T18:06:05.889Z,10.75
2023-03-11T18:11:11.316Z,10.02
2023-03-11T18:16:18.287Z,9.68
2023-03-11T18:21:23.870Z,11.15
2023-03-11T18:26:29.960Z,12.65
2023-03-11T18:31:34.732Z,12.32
2023-03-11T18:36:38.654Z,13.23
2023-03-11T18:41:42.978Z,12.90
2023-03-11T18:46:47.652Z,12.85
2023-03-11T18:56:53.898Z,10.40
2023-03-11T19:01:58.537Z,10.55
2023-03-11T19:07:01.803Z,13.45
2023-03-11T19:12:05.334Z,26.42
2023-03-11T19:17:10.068Z,23.95
2023-03-11T19:22:13.325Z,15.75
2023-03-11T19:27:16.566Z,16.10
2023-03-11T19:32:21.240Z,12.57
2023-03-11T19:42:27.430Z,11.10
2023-03-11T19:47:32.117Z,11.20
2023-03-11T19:57:39.682Z,12.65
2023-03-11T20:02:44.925Z,11.25
2023-03-11T20:07:48.307Z,12.60
2023-03-11T20:13:01.796Z,12.85
2023-03-11T20:18:08.271Z,13.07
2023-03-11T20:23:11.599Z,12.25
2023-03-11T20:28:15.008Z,11.45
2023-03-11T20:33:19.751Z,10.50
2023-03-11T20:43:26.111Z,12.07
2023-03-11T20:48:31.780Z,10.93
2023-03-11T20:53:35.721Z,15.05
2023-03-11T20:58:39.782Z,12.63
2023-03-11T21:03:45.159Z,12.90
2023-03-11T21:08:49.430Z,12.65
2023-03-11T21:13:53.174Z,12.40
2023-03-11T21:18:57.979Z,12.73
2023-03-11T21:29:04.972Z,15.20
2023-03-11T21:34:11.995Z,15.32
2023-03-11T21:39:15.530Z,13.68
2023-03-11T21:44:19.180Z,13.65
2023-03-11T21:49:24.304Z,15.38
2023-03-11T21:54:27.763Z,14.15
2023-03-11T21:59:31.492Z,14.25
2023-03-11T22:04:36.253Z,12.55
2023-03-11T22:14:42.827Z,13.93
2023-03-11T22:19:47.800Z,13.52
2023-03-11T22:24:51.061Z,14.27
2023-03-11T22:29:54.335Z,10.55
2023-03-11T22:34:59.031Z,10.45
2023-03-11T22:40:02.258Z,12.07
2023-03-11T22:45:06.457Z,11.35
2023-03-11T22:50:12.345Z,10.90
2023-03-11T22:55:15.616Z,12.27
2023-03-11T23:00:21.219Z,12.00
2023-03-11T23:05:25.963Z,11.85
2023-03-11T23:10:29.177Z,12.73
2023-03-11T23:15:32.511Z,11.88
2023-03-11T23:20:38.510Z,10.85
2023-03-11T23:25:42.696Z,10.43
2023-03-11T23:30:45.941Z,12.97
2023-03-11T23:35:50.599Z,12.02
2023-03-11T23:40:53.864Z,11.68
2023-03-11T23:45:57.098Z,11.65
2023-03-11T23:51:02.347Z,10.95
2023-03-11T23:56:11.150Z,14.23
